createdAt,value
2022-08-20T00:01:26.732Z,21.66
2022-08-20T00:04:58.476Z,21.59
2022-08-20T00:08:36.645Z,21.59
2022-08-20T00:12:11.490Z,21.58
2022-08-20T00:15:43.692Z,21.56
2022-08-20T00:19:13.532Z,21.55
2022-08-20T00:22:48.647Z,21.54
2022-08-20T00:26:26.507Z,21.53
2022-08-20T00:30:01.665Z,21.50
2022-08-20T00:33:37.518Z,21.46
2022-08-20T00:37:13.738Z,21.46
2022-08-20T00:40:48.530Z,21.44
2022-08-20T00:44:30.667Z,21.40
2022-08-20T00:48:06.504Z,21.35
2022-08-20T00:51:51.671Z,21.29
2022-08-20T00:55:31.527Z,21.23
2022-08-20T00:59:08.662Z,21.23
2022-08-20T01:12:18.760Z,20.96
2022-08-20T01:15:09.398Z,20.91
2022-08-20T01:18:00.552Z,20.82
2022-08-20T01:20:53.291Z,20.83
2022-08-20T01:23:44.969Z,20.87
2022-08-20T01:26:37.800Z,20.83
2022-08-20T01:29:29.710Z,20.80
2022-08-20T01:32:16.354Z,20.78
2022-08-20T01:35:04.871Z,20.78
2022-08-20T01:37:51.731Z,20.78
2022-08-20T01:40:58.176Z,20.82
2022-08-20T01:43:50.343Z,20.83
2022-08-20T01:46:44.051Z,20.78
2022-08-20T01:49:34.937Z,20.78
2022-08-20T01:52:34.182Z,20.78
2022-08-20T01:55:21.075Z,20.81
2022-08-20T01:58:08.630Z,20.81
2022-08-20T02:00:58.311Z,20.81
2022-08-20T02:03:45.250Z,20.79
2022-08-20T02:06:35.130Z,20.77
2022-08-20T02:09:22.553Z,20.75
2022-08-20T02:12:10.342Z,20.76
2022-08-20T02:14:57.534Z,20.76
2022-08-20T02:17:44.194Z,20.69
2022-08-20T02:20:32.066Z,20.65
2022-08-20T02:23:21.730Z,20.67
2022-08-20T02:26:09.982Z,20.68
2022-08-20T02:28:57.569Z,20.70
2022-08-20T02:32:32.124Z,20.73
2022-08-20T02:34:55.028Z,20.69
2022-08-20T02:37:44.277Z,20.66
2022-08-20T02:40:32.424Z,20.67
2022-08-20T02:43:20.274Z,20.67
2022-08-20T02:46:07.134Z,20.65
2022-08-20T02:48:54.936Z,20.61
2022-08-20T02:51:41.940Z,20.58
2022-08-20T02:54:29.471Z,20.59
2022-08-20T02:57:20.495Z,20.50
2022-08-20T03:00:13.510Z,20.39
2022-08-20T03:03:01.065Z,20.41
2022-08-20T03:05:49.212Z,20.45
2022-08-20T03:08:37.752Z,20.44
2022-08-20T03:11:24.710Z,20.45
2022-08-20T03:14:11.875Z,20.46
2022-08-20T03:16:59.586Z,20.48
2022-08-20T03:19:46.404Z,20.48
2022-08-20T03:22:33.551Z,20.49
2022-08-20T03:25:20.883Z,20.47
2022-08-20T03:28:07.703Z,20.44
2022-08-20T03:30:54.733Z,20.46
2022-08-20T03:33:48.828Z,20.43
2022-08-20T03:36:40.265Z,20.39
2022-08-20T03:39:27.015Z,20.36
2022-08-20T03:42:13.788Z,20.32
2022-08-20T03:45:01.009Z,20.26
2022-08-20T03:47:48.919Z,20.24
2022-08-20T03:50:36.486Z,20.20
2022-08-20T03:53:23.942Z,20.21
2022-08-20T03:56:10.785Z,20.21
2022-08-20T03:59:01.428Z,20.21
2022-08-20T04:01:48.663Z,20.10
2022-08-20T04:04:35.506Z,20.11
2022-08-20T04:07:35.277Z,20.10
2022-08-20T04:10:22.092Z,20.12
2022-08-20T04:13:09.053Z,20.12
2022-08-20T04:15:57.321Z,20.14
2022-08-20T04:18:56.255Z,20.13
2022-08-20T04:21:49.535Z,20.17
2022-08-20T04:24:37.255Z,20.21
2022-08-20T04:27:24.156Z,20.27
2022-08-20T04:30:12.980Z,20.31
2022-08-20T04:32:59.834Z,20.35
2022-08-20T04:35:46.596Z,20.43
2022-08-20T04:38:50.055Z,20.53
2022-08-20T04:41:37.787Z,20.63
2022-08-20T04:44:24.659Z,20.70
2022-08-20T04:47:11.440Z,20.77
2022-08-20T04:50:00.555Z,20.84
2022-08-20T04:52:50.290Z,20.93
2022-08-20T04:55:41.751Z,20.99
2022-08-20T04:58:38.910Z,21.02
2022-08-20T05:01:27.184Z,21.09
2022-08-20T05:04:14.209Z,21.14
2022-08-20T05:07:00.873Z,21.17
2022-08-20T05:09:47.646Z,21.28
2022-08-20T05:12:34.683Z,21.37
2022-08-20T05:15:24.609Z,21.40
2022-08-20T05:18:11.734Z,21.44
2022-08-20T05:21:05.673Z,21.51
2022-08-20T05:23:54.875Z,21.61
2022-08-20T05:26:41.614Z,21.76
2022-08-20T05:29:28.767Z,21.87
2022-08-20T05:32:15.647Z,21.88
2022-08-20T05:35:04.332Z,21.87
2022-08-20T05:37:51.322Z,21.90
2022-08-20T05:40:46.623Z,21.96
2022-08-20T05:43:35.722Z,22.01
2022-08-20T05:46:23.009Z,22.05
2022-08-20T05:49:16.737Z,22.03
2022-08-20T05:52:05.316Z,22.10
2022-08-20T05:54:53.395Z,22.16
2022-08-20T05:57:41.431Z,22.26
2022-08-20T06:00:29.918Z,22.35
2022-08-20T06:03:35.174Z,22.44
2022-08-20T06:06:45.187Z,22.51
2022-08-20T06:09:32.663Z,22.57
2022-08-20T06:12:20.242Z,22.61
2022-08-20T06:15:07.763Z,22.59
2022-08-20T06:17:58.214Z,22.63
2022-08-20T06:20:46.100Z,22.69
2022-08-20T06:23:50.365Z,22.64
2022-08-20T06:26:40.341Z,22.68
2022-08-20T06:29:30.037Z,22.72
2022-08-20T06:32:18.284Z,22.72
2022-08-20T06:35:07.865Z,22.74
2022-08-20T06:37:54.631Z,22.73
2022-08-20T06:40:46.299Z,22.72
2022-08-20T06:43:34.146Z,22.76
2022-08-20T06:46:23.515Z,22.82
2022-08-20T06:49:10.619Z,22.88
2022-08-20T06:51:57.413Z,22.95
2022-08-20T06:54:45.043Z,23.02
2022-08-20T06:57:31.886Z,23.11
2022-08-20T07:00:20.778Z,23.18
2022-08-20T07:03:08.215Z,23.28
2022-08-20T07:05:59.941Z,23.40
2022-08-20T07:08:46.796Z,23.58
2022-08-20T07:11:35.261Z,23.80
2022-08-20T07:14:22.441Z,23.98
2022-08-20T07:17:13.219Z,24.06
2022-08-20T07:20:12.208Z,24.16
2022-08-20T07:22:59.745Z,24.27
2022-08-20T07:25:48.619Z,24.35
2022-08-20T07:28:36.806Z,24.38
2022-08-20T07:31:42.337Z,24.42
2022-08-20T07:34:31.480Z,24.46
2022-08-20T07:37:18.560Z,24.46
2022-08-20T07:40:08.007Z,24.44
2022-08-20T07:43:03.801Z,24.50
2022-08-20T07:46:01.408Z,24.55
2022-08-20T07:48:51.163Z,24.55
2022-08-20T07:51:38.251Z,24.46
2022-08-20T07:54:30.479Z,24.40
2022-08-20T07:57:33.506Z,24.44
2022-08-20T08:01:03.583Z,24.49
2022-08-20T08:04:46.440Z,24.48
2022-08-20T08:08:17.560Z,24.50
2022-08-20T08:11:48.440Z,24.52
2022-08-20T08:15:19.557Z,24.54
2022-08-20T08:18:49.435Z,24.55
2022-08-20T08:22:08.635Z,24.50
2022-08-20T08:25:40.460Z,24.43
2022-08-20T08:29:30.757Z,24.43
2022-08-20T08:33:12.142Z,24.40
2022-08-20T08:36:27.490Z,24.38
2022-08-20T08:39:42.696Z,24.36
2022-08-20T08:42:32.570Z,24.29
2022-08-20T08:45:52.020Z,24.24
2022-08-20T08:48:44.033Z,24.21
2022-08-20T08:51:53.941Z,24.18
2022-08-20T08:55:07.434Z,24.24
2022-08-20T08:58:42.621Z,24.27
2022-08-20T09:01:53.806Z,24.24
2022-08-20T09:05:25.673Z,24.27
2022-08-20T09:08:19.409Z,24.25
2022-08-20T09:11:08.811Z,24.21
2022-08-20T09:13:56.264Z,24.15
2022-08-20T09:16:52.912Z,24.07
2022-08-20T09:19:40.663Z,23.85
2022-08-20T09:22:28.119Z,23.78
2022-08-20T09:25:14.800Z,23.72
2022-08-20T09:28:02.103Z,23.70
2022-08-20T09:30:51.506Z,23.69
2022-08-20T09:33:38.240Z,23.69
2022-08-20T09:36:31.671Z,23.72
2022-08-20T09:39:20.286Z,23.77
2022-08-20T09:42:17.109Z,23.80
2022-08-20T09:45:04.202Z,23.89
2022-08-20T09:47:58.487Z,23.99
2022-08-20T09:50:49.310Z,24.13
2022-08-20T09:53:36.143Z,24.36
2022-08-20T09:56:23.325Z,24.72
2022-08-20T09:59:10.259Z,25.15
2022-08-20T10:01:58.137Z,25.39
2022-08-20T10:04:45.897Z,25.59
2022-08-20T10:07:35.551Z,25.75
2022-08-20T10:10:42.723Z,25.85
2022-08-20T10:13:30.621Z,25.92
2022-08-20T10:17:00.105Z,25.95
2022-08-20T10:20:20.428Z,25.93
2022-08-20T10:23:28.449Z,25.99
2022-08-20T10:26:59.636Z,25.97
2022-08-20T10:29:50.916Z,25.99
2022-08-20T10:33:17.896Z,26.04
2022-08-20T10:36:39.491Z,26.05
2022-08-20T10:40:26.414Z,26.05
2022-08-20T10:43:13.421Z,26.04
2022-08-20T10:46:04.575Z,26.03
2022-08-20T10:49:02.151Z,26.02
2022-08-20T10:52:00.177Z,26.06
2022-08-20T10:54:47.767Z,26.08
2022-08-20T10:57:35.109Z,26.08
2022-08-20T11:00:23.847Z,26.05
2022-08-20T11:03:10.922Z,26.01
2022-08-20T11:05:58.131Z,26.01
2022-08-20T11:08:46.553Z,25.97
2022-08-20T11:11:33.196Z,25.91
2022-08-20T11:14:20.589Z,25.73
2022-08-20T11:17:10.247Z,25.61
2022-08-20T11:20:20.680Z,25.47
2022-08-20T11:23:07.767Z,25.27
2022-08-20T11:25:55.231Z,25.20
2022-08-20T11:28:42.139Z,25.15
2022-08-20T11:31:29.303Z,25.10
2022-08-20T11:34:16.034Z,25.04
2022-08-20T11:37:02.781Z,25.00
2022-08-20T11:39:49.778Z,24.97
2022-08-20T11:42:44.567Z,24.95
2022-08-20T11:45:47.446Z,24.91
2022-08-20T11:48:34.594Z,24.88
2022-08-20T11:51:21.270Z,24.84
2022-08-20T11:54:08.053Z,24.81
2022-08-20T11:56:57.914Z,24.79
2022-08-20T11:59:49.794Z,24.81
2022-08-20T12:02:37.021Z,24.77
2022-08-20T12:05:27.456Z,24.76
2022-08-20T12:08:27.440Z,24.74
2022-08-20T12:11:35.436Z,24.71
2022-08-20T12:14:22.502Z,24.66
2022-08-20T12:17:21.510Z,24.62
2022-08-20T12:20:12.649Z,24.55
2022-08-20T12:23:01.793Z,24.47
2022-08-20T12:25:49.840Z,24.43
2022-08-20T12:28:37.867Z,24.38
2022-08-20T12:31:24.658Z,24.40
2022-08-20T12:34:11.909Z,24.46
2022-08-20T12:37:05.900Z,24.38
2022-08-20T12:39:55.802Z,24.15
2022-08-20T12:42:42.876Z,24.10
2022-08-20T12:45:31.091Z,24.10
2022-08-20T12:48:38.201Z,24.13
2022-08-20T12:51:25.413Z,24.16
2022-08-20T12:54:14.408Z,24.18
2022-08-20T12:57:02.393Z,24.20
2022-08-20T13:00:00.146Z,24.14
2022-08-20T13:02:47.752Z,24.10
2022-08-20T13:05:35.579Z,24.07
2022-08-20T13:08:48.382Z,24.04
2022-08-20T13:11:50.117Z,24.07
2022-08-20T13:15:01.815Z,24.05
2022-08-20T13:18:24.727Z,24.02
2022-08-20T13:21:25.603Z,24.00
2022-08-20T13:24:38.257Z,23.96
2022-08-20T13:27:57.624Z,23.90
2022-08-20T13:31:25.155Z,23.92
2022-08-20T13:34:33.246Z,23.90
2022-08-20T13:38:03.424Z,23.83
2022-08-20T13:41:10.367Z,23.73
2022-08-20T13:44:55.411Z,23.68
2022-08-20T13:48:33.574Z,23.58
2022-08-20T13:51:54.014Z,23.51
2022-08-20T13:55:06.569Z,23.46
2022-08-20T13:58:18.994Z,23.37
2022-08-20T14:02:02.877Z,23.25
2022-08-20T14:05:02.658Z,23.19
2022-08-20T14:07:50.769Z,23.17
2022-08-20T14:10:38.270Z,23.11
2022-08-20T14:13:26.847Z,22.99
2022-08-20T14:16:17.157Z,22.87
2022-08-20T14:19:14.044Z,22.82
2022-08-20T14:22:02.467Z,22.75
2022-08-20T14:24:49.671Z,22.68
2022-08-20T14:27:37.124Z,22.69
2022-08-20T14:30:27.504Z,22.68
2022-08-20T14:33:14.764Z,22.66
2022-08-20T14:36:01.318Z,22.63
2022-08-20T14:38:47.896Z,22.59
2022-08-20T14:41:34.772Z,22.50
2022-08-20T14:44:21.315Z,22.45
2022-08-20T14:47:27.490Z,22.42
2022-08-20T14:50:17.255Z,22.39
2022-08-20T14:53:04.632Z,22.38
2022-08-20T14:55:51.845Z,22.34
2022-08-20T14:58:38.706Z,22.23
2022-08-20T15:01:25.740Z,22.15
2022-08-20T15:04:12.952Z,22.08
2022-08-20T15:07:07.965Z,22.01
2022-08-20T15:10:00.658Z,21.99
2022-08-20T15:12:48.023Z,21.99
2022-08-20T15:15:35.469Z,21.90
2022-08-20T15:18:25.158Z,21.84
2022-08-20T15:21:12.381Z,21.80
2022-08-20T15:23:59.271Z,21.77
2022-08-20T15:26:46.687Z,21.71
2022-08-20T15:29:33.434Z,21.61
2022-08-20T15:32:21.380Z,21.54
2022-08-20T15:35:11.448Z,21.58
2022-08-20T15:37:59.480Z,21.63
2022-08-20T15:40:46.276Z,21.66
2022-08-20T15:43:33.528Z,21.64
2022-08-20T15:46:19.943Z,21.63
2022-08-20T15:49:11.708Z,21.58
2022-08-20T15:51:58.378Z,21.55
2022-08-20T15:54:46.875Z,21.55
2022-08-20T15:57:39.975Z,21.51
2022-08-20T16:00:40.708Z,21.42
2022-08-20T16:03:45.309Z,21.32
2022-08-20T16:06:34.273Z,21.16
2022-08-20T16:10:15.125Z,21.07
2022-08-20T16:13:23.040Z,21.01
2022-08-20T16:16:19.122Z,21.00
2022-08-20T16:19:12.270Z,20.97
2022-08-20T16:22:00.009Z,21.03
2022-08-20T16:24:47.242Z,21.03
2022-08-20T16:28:01.736Z,21.03
2022-08-20T16:30:53.598Z,21.04
2022-08-20T16:34:32.941Z,21.05
2022-08-20T16:37:31.163Z,21.08
2022-08-20T16:40:30.295Z,21.09
2022-08-20T16:43:23.457Z,21.06
2022-08-20T16:46:18.025Z,21.09
2022-08-20T16:49:13.624Z,21.10
2022-08-20T16:52:01.336Z,21.09
2022-08-20T16:54:48.602Z,21.13
2022-08-20T16:57:37.251Z,21.13
2022-08-20T17:00:42.529Z,21.13
2022-08-20T17:03:39.291Z,21.13
2022-08-20T17:06:39.747Z,21.16
2022-08-20T17:09:44.203Z,21.15
2022-08-20T17:12:35.893Z,21.11
2022-08-20T17:15:27.961Z,21.10
2022-08-20T17:18:32.238Z,21.05
2022-08-20T17:21:41.956Z,20.99
2022-08-20T17:24:33.673Z,20.97
2022-08-20T17:27:39.757Z,20.96
2022-08-20T17:30:37.022Z,20.94
2022-08-20T17:33:28.910Z,20.91
2022-08-20T17:36:22.689Z,20.88
2022-08-20T17:39:18.599Z,20.80
2022-08-20T17:42:14.930Z,20.82
2022-08-20T17:45:14.382Z,20.81
2022-08-20T17:48:06.120Z,20.80
2022-08-20T17:50:56.733Z,20.77
2022-08-20T17:53:53.920Z,20.75
2022-08-20T17:57:04.238Z,20.77
2022-08-20T18:00:10.554Z,20.75
2022-08-20T18:03:13.858Z,20.71
2022-08-20T18:06:04.722Z,20.70
2022-08-20T18:09:03.151Z,20.65
2022-08-20T18:12:06.983Z,20.66
2022-08-20T18:15:44.439Z,20.60
2022-08-20T18:18:56.566Z,20.61
2022-08-20T18:22:18.291Z,20.58
2022-08-20T18:25:15.874Z,20.54
2022-08-20T18:28:15.991Z,20.50
2022-08-20T18:31:08.018Z,20.45
2022-08-20T18:34:24.931Z,20.39
2022-08-20T18:37:13.121Z,20.36
2022-08-20T18:40:31.134Z,20.34
2022-08-20T18:43:34.634Z,20.32
2022-08-20T18:46:43.583Z,20.35
2022-08-20T18:49:57.718Z,20.37
2022-08-20T18:53:04.934Z,20.38
2022-08-20T18:56:37.950Z,20.35
2022-08-20T18:59:49.104Z,20.25
2022-08-20T19:03:24.674Z,20.22
2022-08-20T19:06:23.611Z,20.17
2022-08-20T19:09:38.385Z,20.20
2022-08-20T19:13:15.864Z,20.23
2022-08-20T19:16:31.948Z,20.21
2022-08-20T19:19:41.197Z,20.20
2022-08-20T19:22:37.866Z,20.17
2022-08-20T19:25:54.947Z,20.14
2022-08-20T19:28:59.676Z,20.18
2022-08-20T19:32:06.432Z,20.19
2022-08-20T19:35:36.709Z,20.20
2022-08-20T19:39:02.749Z,20.20
2022-08-20T19:42:31.963Z,20.16
2022-08-20T19:45:48.705Z,20.15
2022-08-20T19:49:20.191Z,20.18
2022-08-20T19:52:36.635Z,20.21
2022-08-20T19:55:49.758Z,20.19
2022-08-20T19:58:56.641Z,20.18
2022-08-20T20:02:03.298Z,20.11
2022-08-20T20:05:31.333Z,20.03
2022-08-20T20:08:41.453Z,19.95
2022-08-20T20:12:36.435Z,19.96
2022-08-20T20:16:04.864Z,19.97
2022-08-20T20:19:28.290Z,19.98
2022-08-20T20:22:41.698Z,19.97
2022-08-20T20:25:33.145Z,19.98
2022-08-20T20:28:51.310Z,19.96
2022-08-20T20:32:08.975Z,19.95
2022-08-20T20:35:49.566Z,19.92
2022-08-20T20:39:38.569Z,19.91
2022-08-20T20:42:58.718Z,19.91
2022-08-20T20:46:03.565Z,19.90
2022-08-20T20:49:33.190Z,19.87
2022-08-20T20:52:51.709Z,19.84
2022-08-20T20:56:03.708Z,19.80
2022-08-20T20:58:55.599Z,19.76
2022-08-20T21:02:03.279Z,19.70
2022-08-20T21:04:59.375Z,19.62
2022-08-20T21:07:53.050Z,19.61
2022-08-20T21:10:45.917Z,19.57
2022-08-20T21:13:36.963Z,19.49
2022-08-20T21:16:24.318Z,19.51
2022-08-20T21:19:13.853Z,19.53
2022-08-20T21:22:03.754Z,19.54
2022-08-20T21:24:58.715Z,19.58
2022-08-20T21:27:49.178Z,19.58
2022-08-20T21:30:38.531Z,19.63
2022-08-20T21:33:27.386Z,19.65
2022-08-20T21:36:15.489Z,19.62
2022-08-20T21:39:03.620Z,19.64
2022-08-20T21:42:12.477Z,19.68
2022-08-20T21:45:28.438Z,19.66
2022-08-20T21:48:19.999Z,19.67
2022-08-20T21:51:08.564Z,19.71
2022-08-20T21:53:57.904Z,19.73
2022-08-20T21:57:31.019Z,19.74
2022-08-20T22:00:39.565Z,19.73
2022-08-20T22:04:06.773Z,19.73
2022-08-20T22:07:53.591Z,19.76
2022-08-20T22:11:04.912Z,19.77
2022-08-20T22:14:35.616Z,19.77
2022-08-20T22:17:42.291Z,19.75
2022-08-20T22:20:44.549Z,19.71
2022-08-20T22:23:42.204Z,19.71
2022-08-20T22:27:20.488Z,19.69
2022-08-20T22:30:33.233Z,19.67
2022-08-20T22:33:26.047Z,19.55
2022-08-20T22:36:16.441Z,19.51
2022-08-20T22:39:09.307Z,19.51
2022-08-20T22:42:16.513Z,19.49
2022-08-20T22:45:14.954Z,19.45
2022-08-20T22:48:23.400Z,19.39
2022-08-20T22:51:35.557Z,19.37
2022-08-20T22:54:44.717Z,19.33
2022-08-20T22:57:34.225Z,19.30
2022-08-20T23:00:41.893Z,19.26
2022-08-20T23:03:39.883Z,19.22
2022-08-20T23:06:30.872Z,19.17
2022-08-20T23:09:35.640Z,19.18
2022-08-20T23:12:53.136Z,19.18
2022-08-20T23:16:20.565Z,19.19
2022-08-20T23:19:29.347Z,19.15
2022-08-20T23:22:55.833Z,19.14
2022-08-20T23:25:48.361Z,19.13
2022-08-20T23:29:25.723Z,19.09
2022-08-20T23:32:28.346Z,19.08
2022-08-20T23:36:06.630Z,19.10
2022-08-20T23:39:09.530Z,19.09
2022-08-20T23:42:25.734Z,19.07
2022-08-20T23:45:31.414Z,19.07
2022-08-20T23:48:44.096Z,19.08
2022-08-20T23:51:48.302Z,19.09
2022-08-20T23:55:04.531Z,19.09
2022-08-20T23:58:07.406Z,19.08
